sensor_id;sensor_type;location;lat;lon;timestamp;temperature;humidity
63317;DHT22;49822;41.468;13.560;2023-01-13T00:01:24;3.70;80.30
63317;DHT22;49822;41.468;13.560;2023-01-13T00:03:52;3.90;78.90
63317;DHT22;49822;41.468;13.560;2023-01-13T00:06:22;4.00;78.90
63317;DHT22;49822;41.468;13.560;2023-01-13T00:08:53;3.70;78.90
63317;DHT22;49822;41.468;13.560;2023-01-13T00:11:21;3.50;79.40
63317;DHT22;49822;41.468;13.560;2023-01-13T00:13:50;3.50;80.20
63317;DHT22;49822;41.468;13.560;2023-01-13T00:16:19;3.80;80.30
63317;DHT22;49822;41.468;13.560;2023-01-13T00:18:47;4.00;79.20
63317;DHT22;49822;41.468;13.560;2023-01-13T00:21:18;4.20;77.90
63317;DHT22;49822;41.468;13.560;2023-01-13T00:23:46;4.30;77.20
63317;DHT22;49822;41.468;13.560;2023-01-13T00:26:17;4.40;77.20
63317;DHT22;49822;41.468;13.560;2023-01-13T00:28:45;4.50;76.90
63317;DHT22;49822;41.468;13.560;2023-01-13T00:31:16;4.70;76.10
63317;DHT22;49822;41.468;13.560;2023-01-13T00:33:44;4.50;75.70
63317;DHT22;49822;41.468;13.560;2023-01-13T00:36:13;4.50;75.50
63317;DHT22;49822;41.468;13.560;2023-01-13T00:38:41;4.20;76.70
63317;DHT22;49822;41.468;13.560;2023-01-13T00:41:16;4.00;75.90
63317;DHT22;49822;41.468;13.560;2023-01-13T00:43:44;3.90;76.70
63317;DHT22;49822;41.468;13.560;2023-01-13T00:46:14;4.00;76.50
63317;DHT22;49822;41.468;13.560;2023-01-13T00:48:42;4.10;76.50
63317;DHT22;49822;41.468;13.560;2023-01-13T00:51:13;3.50;77.00
63317;DHT22;49822;41.468;13.560;2023-01-13T00:53:43;3.50;79.40
63317;DHT22;49822;41.468;13.560;2023-01-13T00:56:16;3.50;80.20
63317;DHT22;49822;41.468;13.560;2023-01-13T00:58:56;3.70;79.70
63317;DHT22;49822;41.468;13.560;2023-01-13T01:01:25;3.70;77.30
63317;DHT22;49822;41.468;13.560;2023-01-13T01:03:53;3.50;78.40
63317;DHT22;49822;41.468;13.560;2023-01-13T01:06:23;3.70;79.50
63317;DHT22;49822;41.468;13.560;2023-01-13T01:08:52;3.90;78.80
63317;DHT22;49822;41.468;13.560;2023-01-13T01:11:23;4.00;78.70
63317;DHT22;49822;41.468;13.560;2023-01-13T01:13:53;4.20;78.20
63317;DHT22;49822;41.468;13.560;2023-01-13T01:16:23;4.40;77.70
63317;DHT22;49822;41.468;13.560;2023-01-13T01:18:51;4.40;76.50
63317;DHT22;49822;41.468;13.560;2023-01-13T01:21:20;4.50;76.40
63317;DHT22;49822;41.468;13.560;2023-01-13T01:23:48;4.30;75.60
63317;DHT22;49822;41.468;13.560;2023-01-13T01:26:19;4.20;75.40
63317;DHT22;49822;41.468;13.560;2023-01-13T01:28:48;3.90;75.60
63317;DHT22;49822;41.468;13.560;2023-01-13T01:31:20;3.40;78.40
63317;DHT22;49822;41.468;13.560;2023-01-13T01:33:49;3.50;80.00
63317;DHT22;49822;41.468;13.560;2023-01-13T01:36:18;3.70;79.60
63317;DHT22;49822;41.468;13.560;2023-01-13T01:38:46;3.90;79.50
63317;DHT22;49822;41.468;13.560;2023-01-13T01:41:17;4.10;78.90
63317;DHT22;49822;41.468;13.560;2023-01-13T01:43:54;4.20;77.50
63317;DHT22;49822;41.468;13.560;2023-01-13T01:46:37;4.30;76.90
63317;DHT22;49822;41.468;13.560;2023-01-13T01:49:16;4.40;75.90
63317;DHT22;49822;41.468;13.560;2023-01-13T01:54:49;4.50;75.60
63317;DHT22;49822;41.468;13.560;2023-01-13T01:57:23;4.40;74.70
63317;DHT22;49822;41.468;13.560;2023-01-13T01:59:53;4.00;74.60
63317;DHT22;49822;41.468;13.560;2023-01-13T02:02:21;3.60;77.50
63317;DHT22;49822;41.468;13.560;2023-01-13T02:04:51;3.60;78.50
63317;DHT22;49822;41.468;13.560;2023-01-13T02:07:23;3.60;78.80
63317;DHT22;49822;41.468;13.560;2023-01-13T02:09:54;3.50;78.20
63317;DHT22;49822;41.468;13.560;2023-01-13T02:12:22;3.50;79.50
63317;DHT22;49822;41.468;13.560;2023-01-13T02:15:08;3.70;79.60
63317;DHT22;49822;41.468;13.560;2023-01-13T02:17:52;3.90;78.80
63317;DHT22;49822;41.468;13.560;2023-01-13T02:23:34;4.10;77.80
63317;DHT22;49822;41.468;13.560;2023-01-13T02:36:03;3.30;80.50
63317;DHT22;49822;41.468;13.560;2023-01-13T02:38:36;3.50;80.80
63317;DHT22;49822;41.468;13.560;2023-01-13T02:41:17;3.80;80.20
63317;DHT22;49822;41.468;13.560;2023-01-13T02:44:08;3.90;78.70
63317;DHT22;49822;41.468;13.560;2023-01-13T02:49:34;3.90;76.70
63317;DHT22;49822;41.468;13.560;2023-01-13T02:52:25;3.90;77.20
63317;DHT22;49822;41.468;13.560;2023-01-13T02:54:58;3.90;77.80
63317;DHT22;49822;41.468;13.560;2023-01-13T02:57:30;4.00;77.20
63317;DHT22;49822;41.468;13.560;2023-01-13T02:59:59;4.00;76.50
63317;DHT22;49822;41.468;13.560;2023-01-13T03:02:27;3.50;75.50
63317;DHT22;49822;41.468;13.560;2023-01-13T03:04:56;3.00;78.70
63317;DHT22;49822;41.468;13.560;2023-01-13T03:07:39;3.10;81.30
63317;DHT22;49822;41.468;13.560;2023-01-13T03:10:26;3.30;81.50
63317;DHT22;49822;41.468;13.560;2023-01-13T03:13:13;3.60;80.80
63317;DHT22;49822;41.468;13.560;2023-01-13T03:24:29;3.30;81.50
63317;DHT22;49822;41.468;13.560;2023-01-13T03:27:03;3.50;80.10
63317;DHT22;49822;41.468;13.560;2023-01-13T03:29:37;3.60;80.40
63317;DHT22;49822;41.468;13.560;2023-01-13T03:34:40;3.70;77.90
63317;DHT22;49822;41.468;13.560;2023-01-13T03:37:14;3.50;77.10
63317;DHT22;49822;41.468;13.560;2023-01-13T03:39:46;3.10;77.60
63317;DHT22;49822;41.468;13.560;2023-01-13T03:42:19;3.10;78.70
63317;DHT22;49822;41.468;13.560;2023-01-13T03:44:50;3.10;79.00
63317;DHT22;49822;41.468;13.560;2023-01-13T03:47:29;3.10;80.00
63317;DHT22;49822;41.468;13.560;2023-01-13T03:50:08;3.30;80.00
63317;DHT22;49822;41.468;13.560;2023-01-13T03:52:44;3.50;79.50
63317;DHT22;49822;41.468;13.560;2023-01-13T03:55:17;3.40;78.70
63317;DHT22;49822;41.468;13.560;2023-01-13T03:58:29;3.10;79.40
63317;DHT22;49822;41.468;13.560;2023-01-13T04:06:39;3.50;78.60
63317;DHT22;49822;41.468;13.560;2023-01-13T04:09:15;3.40;78.80
63317;DHT22;49822;41.468;13.560;2023-01-13T04:11:51;3.20;79.40
63317;DHT22;49822;41.468;13.560;2023-01-13T04:14:20;3.00;80.00
63317;DHT22;49822;41.468;13.560;2023-01-13T04:16:54;2.70;81.50
63317;DHT22;49822;41.468;13.560;2023-01-13T04:19:23;2.70;83.00
63317;DHT22;49822;41.468;13.560;2023-01-13T04:21:51;2.80;82.60
63317;DHT22;49822;41.468;13.560;2023-01-13T04:24:18;3.00;82.60
63317;DHT22;49822;41.468;13.560;2023-01-13T04:26:46;3.10;81.60
63317;DHT22;49822;41.468;13.560;2023-01-13T04:29:14;3.10;81.20
63317;DHT22;49822;41.468;13.560;2023-01-13T04:31:42;3.00;81.20
63317;DHT22;49822;41.468;13.560;2023-01-13T04:34:11;3.10;80.60
63317;DHT22;49822;41.468;13.560;2023-01-13T04:36:39;3.30;80.00
63317;DHT22;49822;41.468;13.560;2023-01-13T04:39:06;3.20;80.10
63317;DHT22;49822;41.468;13.560;2023-01-13T04:41:34;3.00;78.80
63317;DHT22;49822;41.468;13.560;2023-01-13T04:44:19;2.90;79.30
63317;DHT22;49822;41.468;13.560;2023-01-13T04:46:47;2.90;80.00
63317;DHT22;49822;41.468;13.560;2023-01-13T04:49:14;2.70;80.00
63317;DHT22;49822;41.468;13.560;2023-01-13T04:51:42;2.50;80.80
63317;DHT22;49822;41.468;13.560;2023-01-13T04:54:10;2.30;81.40
63317;DHT22;49822;41.468;13.560;2023-01-13T04:56:38;2.10;83.50
63317;DHT22;49822;41.468;13.560;2023-01-13T04:59:08;2.30;84.30
63317;DHT22;49822;41.468;13.560;2023-01-13T05:01:37;2.30;83.50
63317;DHT22;49822;41.468;13.560;2023-01-13T05:04:05;2.10;84.00
63317;DHT22;49822;41.468;13.560;2023-01-13T05:06:41;2.20;84.90
63317;DHT22;49822;41.468;13.560;2023-01-13T05:09:10;2.40;84.50
63317;DHT22;49822;41.468;13.560;2023-01-13T05:11:39;2.50;84.70
63317;DHT22;49822;41.468;13.560;2023-01-13T05:14:25;2.70;84.00
63317;DHT22;49822;41.468;13.560;2023-01-13T05:17:20;2.90;82.80
63317;DHT22;49822;41.468;13.560;2023-01-13T05:19:49;2.50;80.40
63317;DHT22;49822;41.468;13.560;2023-01-13T05:22:16;2.20;82.30
63317;DHT22;49822;41.468;13.560;2023-01-13T05:25:02;2.10;83.40
63317;DHT22;49822;41.468;13.560;2023-01-13T05:27:51;2.20;83.80
63317;DHT22;49822;41.468;13.560;2023-01-13T05:30:22;2.40;84.00
63317;DHT22;49822;41.468;13.560;2023-01-13T05:32:54;2.60;83.50
63317;DHT22;49822;41.468;13.560;2023-01-13T05:35:23;2.80;82.60
63317;DHT22;49822;41.468;13.560;2023-01-13T05:37:53;2.70;80.70
63317;DHT22;49822;41.468;13.560;2023-01-13T05:40:21;2.70;80.50
63317;DHT22;49822;41.468;13.560;2023-01-13T05:43:16;2.40;81.60
63317;DHT22;49822;41.468;13.560;2023-01-13T05:46:05;2.50;83.00
63317;DHT22;49822;41.468;13.560;2023-01-13T05:48:39;2.50;82.40
63317;DHT22;49822;41.468;13.560;2023-01-13T05:51:08;2.50;83.00
63317;DHT22;49822;41.468;13.560;2023-01-13T05:53:36;2.60;83.20
63317;DHT22;49822;41.468;13.560;2023-01-13T05:56:05;2.80;82.40
63317;DHT22;49822;41.468;13.560;2023-01-13T05:58:33;2.80;80.90
63317;DHT22;49822;41.468;13.560;2023-01-13T06:01:03;2.70;81.20
63317;DHT22;49822;41.468;13.560;2023-01-13T06:03:34;2.60;81.20
63317;DHT22;49822;41.468;13.560;2023-01-13T06:06:03;2.70;81.20
63317;DHT22;49822;41.468;13.560;2023-01-13T06:08:31;2.50;81.60
63317;DHT22;49822;41.468;13.560;2023-01-13T06:10:58;2.50;81.50
63317;DHT22;49822;41.468;13.560;2023-01-13T06:13:26;2.40;81.30
63317;DHT22;49822;41.468;13.560;2023-01-13T06:15:57;2.40;81.20
63317;DHT22;49822;41.468;13.560;2023-01-13T06:18:26;2.50;80.70
63317;DHT22;49822;41.468;13.560;2023-01-13T06:20:55;2.60;80.20
63317;DHT22;49822;41.468;13.560;2023-01-13T06:23:24;2.50;79.00
63317;DHT22;49822;41.468;13.560;2023-01-13T06:26:15;2.50;78.30
63317;DHT22;49822;41.468;13.560;2023-01-13T06:28:43;2.50;78.20
63317;DHT22;49822;41.468;13.560;2023-01-13T06:31:13;2.50;78.10
63317;DHT22;49822;41.468;13.560;2023-01-13T06:33:54;2.30;78.20
63317;DHT22;49822;41.468;13.560;2023-01-13T06:36:37;2.30;78.30
63317;DHT22;49822;41.468;13.560;2023-01-13T06:39:07;1.90;79.50
63317;DHT22;49822;41.468;13.560;2023-01-13T06:41:35;1.90;81.10
63317;DHT22;49822;41.468;13.560;2023-01-13T06:44:22;2.10;81.70
63317;DHT22;49822;41.468;13.560;2023-01-13T06:46:51;1.60;82.50
63317;DHT22;49822;41.468;13.560;2023-01-13T06:49:18;1.20;83.40
63317;DHT22;49822;41.468;13.560;2023-01-13T06:51:48;1.10;85.00
63317;DHT22;49822;41.468;13.560;2023-01-13T06:54:15;1.10;87.10
63317;DHT22;49822;41.468;13.560;2023-01-13T06:56:43;1.30;88.10
63317;DHT22;49822;41.468;13.560;2023-01-13T06:59:11;1.30;88.00
63317;DHT22;49822;41.468;13.560;2023-01-13T07:01:39;1.50;88.70
63317;DHT22;49822;41.468;13.560;2023-01-13T07:04:07;1.70;88.30
63317;DHT22;49822;41.468;13.560;2023-01-13T07:06:34;1.80;86.50
63317;DHT22;49822;41.468;13.560;2023-01-13T07:09:02;1.90;85.30
63317;DHT22;49822;41.468;13.560;2023-01-13T07:11:32;2.00;85.10
63317;DHT22;49822;41.468;13.560;2023-01-13T07:14:01;2.10;84.90
63317;DHT22;49822;41.468;13.560;2023-01-13T07:16:48;2.30;84.50
63317;DHT22;49822;41.468;13.560;2023-01-13T07:19:15;2.30;80.90
63317;DHT22;49822;41.468;13.560;2023-01-13T07:21:50;2.30;82.00
63317;DHT22;49822;41.468;13.560;2023-01-13T07:24:19;2.40;81.10
63317;DHT22;49822;41.468;13.560;2023-01-13T07:26:47;2.60;81.60
63317;DHT22;49822;41.468;13.560;2023-01-13T07:29:16;2.50;81.00
63317;DHT22;49822;41.468;13.560;2023-01-13T07:31:44;2.70;81.40
63317;DHT22;49822;41.468;13.560;2023-01-13T07:34:15;2.70;81.70
63317;DHT22;49822;41.468;13.560;2023-01-13T07:36:43;3.00;81.60
63317;DHT22;49822;41.468;13.560;2023-01-13T07:39:11;2.70;81.40
63317;DHT22;49822;41.468;13.560;2023-01-13T07:41:38;2.80;83.00
63317;DHT22;49822;41.468;13.560;2023-01-13T07:44:28;3.20;83.30
63317;DHT22;49822;41.468;13.560;2023-01-13T07:47:00;3.60;82.50
63317;DHT22;49822;41.468;13.560;2023-01-13T07:49:29;3.80;81.80
63317;DHT22;49822;41.468;13.560;2023-01-13T07:51:58;3.90;81.20
63317;DHT22;49822;41.468;13.560;2023-01-13T07:54:26;3.90;81.40
63317;DHT22;49822;41.468;13.560;2023-01-13T07:57:07;4.00;80.90
63317;DHT22;49822;41.468;13.560;2023-01-13T07:59:34;4.10;81.90
63317;DHT22;49822;41.468;13.560;2023-01-13T08:02:02;4.20;81.70
63317;DHT22;49822;41.468;13.560;2023-01-13T08:04:30;4.10;81.40
63317;DHT22;49822;41.468;13.560;2023-01-13T08:06:57;3.70;79.70
63317;DHT22;49822;41.468;13.560;2023-01-13T08:09:26;3.70;81.50
63317;DHT22;49822;41.468;13.560;2023-01-13T08:11:53;3.90;81.60
63317;DHT22;49822;41.468;13.560;2023-01-13T08:14:42;4.10;80.80
63317;DHT22;49822;41.468;13.560;2023-01-13T08:17:11;4.30;81.50
63317;DHT22;49822;41.468;13.560;2023-01-13T08:19:41;4.70;81.00
63317;DHT22;49822;41.468;13.560;2023-01-13T08:22:10;5.00;78.70
63317;DHT22;49822;41.468;13.560;2023-01-13T08:24:37;5.30;77.80
63317;DHT22;49822;41.468;13.560;2023-01-13T08:27:04;5.50;77.40
63317;DHT22;49822;41.468;13.560;2023-01-13T08:29:32;5.60;75.80
63317;DHT22;49822;41.468;13.560;2023-01-13T08:32:00;5.70;76.70
63317;DHT22;49822;41.468;13.560;2023-01-13T08:34:27;5.90;75.60
63317;DHT22;49822;41.468;13.560;2023-01-13T08:36:55;6.00;74.20
63317;DHT22;49822;41.468;13.560;2023-01-13T08:39:23;5.80;74.30
63317;DHT22;49822;41.468;13.560;2023-01-13T08:41:52;5.50;73.90
63317;DHT22;49822;41.468;13.560;2023-01-13T08:44:28;5.30;75.50
63317;DHT22;49822;41.468;13.560;2023-01-13T08:46:56;5.30;77.50
63317;DHT22;49822;41.468;13.560;2023-01-13T08:49:24;5.10;77.30
63317;DHT22;49822;41.468;13.560;2023-01-13T08:51:52;5.00;78.50
63317;DHT22;49822;41.468;13.560;2023-01-13T08:54:20;5.00;78.50
63317;DHT22;49822;41.468;13.560;2023-01-13T08:56:48;5.20;78.40
63317;DHT22;49822;41.468;13.560;2023-01-13T08:59:18;5.30;77.40
63317;DHT22;49822;41.468;13.560;2023-01-13T09:01:46;5.50;77.20
63317;DHT22;49822;41.468;13.560;2023-01-13T09:04:21;5.60;75.90
63317;DHT22;49822;41.468;13.560;2023-01-13T09:06:50;6.00;75.10
63317;DHT22;49822;41.468;13.560;2023-01-13T09:09:18;6.60;72.80
63317;DHT22;49822;41.468;13.560;2023-01-13T09:11:48;7.10;70.10
63317;DHT22;49822;41.468;13.560;2023-01-13T09:14:36;7.40;68.00
63317;DHT22;49822;41.468;13.560;2023-01-13T09:17:04;7.60;68.20
63317;DHT22;49822;41.468;13.560;2023-01-13T09:19:33;7.50;68.50
63317;DHT22;49822;41.468;13.560;2023-01-13T09:22:01;7.90;69.20
63317;DHT22;49822;41.468;13.560;2023-01-13T09:24:30;8.30;67.50
63317;DHT22;49822;41.468;13.560;2023-01-13T09:26:57;8.70;64.60
63317;DHT22;49822;41.468;13.560;2023-01-13T09:29:24;8.60;64.50
63317;DHT22;49822;41.468;13.560;2023-01-13T09:31:52;8.60;64.40
63317;DHT22;49822;41.468;13.560;2023-01-13T09:34:20;8.40;65.70
63317;DHT22;49822;41.468;13.560;2023-01-13T09:37:08;8.90;65.60
63317;DHT22;49822;41.468;13.560;2023-01-13T09:39:36;10.40;61.30
63317;DHT22;49822;41.468;13.560;2023-01-13T09:42:20;12.20;55.80
63317;DHT22;49822;41.468;13.560;2023-01-13T09:53:14;11.70;57.00
63317;DHT22;49822;41.468;13.560;2023-01-13T09:55:44;13.90;52.90
63317;DHT22;49822;41.468;13.560;2023-01-13T09:58:14;16.00;46.70
63317;DHT22;49822;41.468;13.560;2023-01-13T10:03:54;17.80;42.50
63317;DHT22;49822;41.468;13.560;2023-01-13T10:06:37;17.00;43.10
63317;DHT22;49822;41.468;13.560;2023-01-13T10:09:12;15.60;45.90
63317;DHT22;49822;41.468;13.560;2023-01-13T10:11:42;14.90;46.90
63317;DHT22;49822;41.468;13.560;2023-01-13T10:14:37;14.30;48.60
63317;DHT22;49822;41.468;13.560;2023-01-13T10:22:48;15.60;47.20
63317;DHT22;49822;41.468;13.560;2023-01-13T10:28:10;17.50;43.20
63317;DHT22;49822;41.468;13.560;2023-01-13T10:30:42;18.10;42.40
63317;DHT22;49822;41.468;13.560;2023-01-13T10:35:57;16.70;44.10
63317;DHT22;49822;41.468;13.560;2023-01-13T10:38:36;15.90;46.50
63317;DHT22;49822;41.468;13.560;2023-01-13T10:41:26;16.20;46.00
63317;DHT22;49822;41.468;13.560;2023-01-13T10:44:08;15.30;46.50
63317;DHT22;49822;41.468;13.560;2023-01-13T10:46:57;15.20;47.40
63317;DHT22;49822;41.468;13.560;2023-01-13T10:49:34;15.60;46.20
63317;DHT22;49822;41.468;13.560;2023-01-13T10:52:22;16.30;44.40
63317;DHT22;49822;41.468;13.560;2023-01-13T10:54:52;15.30;46.10
63317;DHT22;49822;41.468;13.560;2023-01-13T10:57:23;14.80;48.00
63317;DHT22;49822;41.468;13.560;2023-01-13T10:59:51;15.30;47.70
63317;DHT22;49822;41.468;13.560;2023-01-13T11:02:28;17.20;44.40
63317;DHT22;49822;41.468;13.560;2023-01-13T11:05:09;18.90;40.40
63317;DHT22;49822;41.468;13.560;2023-01-13T11:07:45;19.10;40.00
63317;DHT22;49822;41.468;13.560;2023-01-13T11:10:23;19.40;39.80
63317;DHT22;49822;41.468;13.560;2023-01-13T11:16:12;19.40;40.40
63317;DHT22;49822;41.468;13.560;2023-01-13T11:18:45;19.90;39.00
63317;DHT22;49822;41.468;13.560;2023-01-13T11:27:46;16.30;43.80
63317;DHT22;49822;41.468;13.560;2023-01-13T11:36:07;16.20;46.50
63317;DHT22;49822;41.468;13.560;2023-01-13T11:39:12;16.70;45.40
63317;DHT22;49822;41.468;13.560;2023-01-13T11:42:08;16.40;47.20
63317;DHT22;49822;41.468;13.560;2023-01-13T11:47:28;16.20;45.80
63317;DHT22;49822;41.468;13.560;2023-01-13T11:49:58;16.20;47.70
63317;DHT22;49822;41.468;13.560;2023-01-13T11:58:30;16.10;46.50
63317;DHT22;49822;41.468;13.560;2023-01-13T12:09:19;13.30;53.80
63317;DHT22;49822;41.468;13.560;2023-01-13T12:12:06;12.90;53.70
63317;DHT22;49822;41.468;13.560;2023-01-13T12:15:25;12.70;55.20
63317;DHT22;49822;41.468;13.560;2023-01-13T12:20:50;13.70;52.70
63317;DHT22;49822;41.468;13.560;2023-01-13T12:23:23;14.10;53.10
63317;DHT22;49822;41.468;13.560;2023-01-13T12:25:56;14.20;53.40
63317;DHT22;49822;41.468;13.560;2023-01-13T12:28:48;14.30;52.70
63317;DHT22;49822;41.468;13.560;2023-01-13T12:31:24;14.30;52.20
63317;DHT22;49822;41.468;13.560;2023-01-13T12:45:23;13.30;55.20
63317;DHT22;49822;41.468;13.560;2023-01-13T12:47:58;13.10;54.60
63317;DHT22;49822;41.468;13.560;2023-01-13T12:52:56;12.70;55.40
63317;DHT22;49822;41.468;13.560;2023-01-13T12:55:24;12.50;56.50
63317;DHT22;49822;41.468;13.560;2023-01-13T12:58:02;12.40;56.90
63317;DHT22;49822;41.468;13.560;2023-01-13T13:14:11;12.20;57.80
63317;DHT22;49822;41.468;13.560;2023-01-13T13:16:50;12.00;59.20
63317;DHT22;49822;41.468;13.560;2023-01-13T13:27:44;12.50;59.00
63317;DHT22;49822;41.468;13.560;2023-01-13T13:30:26;12.50;58.40
63317;DHT22;49822;41.468;13.560;2023-01-13T13:33:28;12.50;58.40
63317;DHT22;49822;41.468;13.560;2023-01-13T13:42:20;12.30;58.60
63317;DHT22;49822;41.468;13.560;2023-01-13T13:45:25;12.10;58.70
63317;DHT22;49822;41.468;13.560;2023-01-13T13:48:29;11.90;58.60
63317;DHT22;49822;41.468;13.560;2023-01-13T13:50:59;11.70;59.30
63317;DHT22;49822;41.468;13.560;2023-01-13T13:53:35;11.70;59.60
63317;DHT22;49822;41.468;13.560;2023-01-13T13:56:14;11.70;59.40
63317;DHT22;49822;41.468;13.560;2023-01-13T13:58:42;11.70;59.90
63317;DHT22;49822;41.468;13.560;2023-01-13T14:01:35;11.70;59.90
63317;DHT22;49822;41.468;13.560;2023-01-13T14:06:33;11.70;59.80
63317;DHT22;49822;41.468;13.560;2023-01-13T14:09:02;11.70;60.70
63317;DHT22;49822;41.468;13.560;2023-01-13T14:11:32;11.90;61.10
63317;DHT22;49822;41.468;13.560;2023-01-13T14:14:05;12.00;61.50
63317;DHT22;49822;41.468;13.560;2023-01-13T14:16:33;12.00;61.10
63317;DHT22;49822;41.468;13.560;2023-01-13T14:19:03;12.10;60.80
63317;DHT22;49822;41.468;13.560;2023-01-13T14:21:32;12.10;59.80
63317;DHT22;49822;41.468;13.560;2023-01-13T14:24:19;12.10;60.20
63317;DHT22;49822;41.468;13.560;2023-01-13T14:26:49;12.10;59.80
63317;DHT22;49822;41.468;13.560;2023-01-13T14:29:22;11.90;59.10
63317;DHT22;49822;41.468;13.560;2023-01-13T14:31:52;12.10;59.00
63317;DHT22;49822;41.468;13.560;2023-01-13T14:34:22;12.40;58.50
63317;DHT22;49822;41.468;13.560;2023-01-13T14:37:00;12.90;57.40
63317;DHT22;49822;41.468;13.560;2023-01-13T14:39:39;13.20;56.50
63317;DHT22;49822;41.468;13.560;2023-01-13T14:42:13;13.30;56.60
63317;DHT22;49822;41.468;13.560;2023-01-13T14:44:50;13.30;56.40
63317;DHT22;49822;41.468;13.560;2023-01-13T14:47:27;13.40;56.00
63317;DHT22;49822;41.468;13.560;2023-01-13T14:52:49;13.50;55.20
63317;DHT22;49822;41.468;13.560;2023-01-13T14:55:33;13.30;55.40
63317;DHT22;49822;41.468;13.560;2023-01-13T14:58:36;13.10;56.70
63317;DHT22;49822;41.468;13.560;2023-01-13T15:01:27;13.00;57.50
63317;DHT22;49822;41.468;13.560;2023-01-13T15:04:15;12.80;57.90
63317;DHT22;49822;41.468;13.560;2023-01-13T15:06:47;12.50;58.00
63317;DHT22;49822;41.468;13.560;2023-01-13T15:09:23;12.10;58.80
63317;DHT22;49822;41.468;13.560;2023-01-13T15:11:51;11.90;61.90
63317;DHT22;49822;41.468;13.560;2023-01-13T15:14:28;11.90;62.30
63317;DHT22;49822;41.468;13.560;2023-01-13T15:16:58;11.90;61.90
63317;DHT22;49822;41.468;13.560;2023-01-13T15:19:25;11.70;61.30
63317;DHT22;49822;41.468;13.560;2023-01-13T15:21:53;11.70;62.50
63317;DHT22;49822;41.468;13.560;2023-01-13T15:24:21;11.70;64.00
63317;DHT22;49822;41.468;13.560;2023-01-13T15:26:49;11.40;67.60
63317;DHT22;49822;41.468;13.560;2023-01-13T15:29:17;11.00;69.70
63317;DHT22;49822;41.468;13.560;2023-01-13T15:31:45;10.90;68.70
63317;DHT22;49822;41.468;13.560;2023-01-13T15:34:12;10.90;68.60
63317;DHT22;49822;41.468;13.560;2023-01-13T15:36:40;10.80;66.20
63317;DHT22;49822;41.468;13.560;2023-01-13T15:39:09;10.80;65.60
63317;DHT22;49822;41.468;13.560;2023-01-13T15:41:39;10.90;66.10
63317;DHT22;49822;41.468;13.560;2023-01-13T15:44:25;10.90;66.20
63317;DHT22;49822;41.468;13.560;2023-01-13T15:47:11;11.00;66.50
63317;DHT22;49822;41.468;13.560;2023-01-13T15:49:44;11.10;67.00
63317;DHT22;49822;41.468;13.560;2023-01-13T15:52:26;11.00;67.90
63317;DHT22;49822;41.468;13.560;2023-01-13T15:54:54;10.70;69.00
63317;DHT22;49822;41.468;13.560;2023-01-13T15:57:23;10.60;69.60
63317;DHT22;49822;41.468;13.560;2023-01-13T15:59:53;10.50;70.00
63317;DHT22;49822;41.468;13.560;2023-01-13T16:02:23;10.30;70.90
63317;DHT22;49822;41.468;13.560;2023-01-13T16:04:51;10.20;71.40
63317;DHT22;49822;41.468;13.560;2023-01-13T16:07:22;10.20;72.10
63317;DHT22;49822;41.468;13.560;2023-01-13T16:09:50;10.30;72.30
63317;DHT22;49822;41.468;13.560;2023-01-13T16:12:18;10.40;72.20
63317;DHT22;49822;41.468;13.560;2023-01-13T16:14:45;10.10;72.00
63317;DHT22;49822;41.468;13.560;2023-01-13T16:17:17;9.80;73.50
63317;DHT22;49822;41.468;13.560;2023-01-13T16:19:47;9.50;73.60
63317;DHT22;49822;41.468;13.560;2023-01-13T16:22:17;9.50;74.30
63317;DHT22;49822;41.468;13.560;2023-01-13T16:24:45;9.50;73.60
63317;DHT22;49822;41.468;13.560;2023-01-13T16:29:43;9.20;75.00
63317;DHT22;49822;41.468;13.560;2023-01-13T16:32:12;8.90;75.80
63317;DHT22;49822;41.468;13.560;2023-01-13T16:34:40;9.20;74.70
63317;DHT22;49822;41.468;13.560;2023-01-13T16:37:37;9.40;73.90
63317;DHT22;49822;41.468;13.560;2023-01-13T16:40:05;9.40;73.90
63317;DHT22;49822;41.468;13.560;2023-01-13T16:42:34;9.40;73.30
63317;DHT22;49822;41.468;13.560;2023-01-13T16:45:01;9.60;74.40
63317;DHT22;49822;41.468;13.560;2023-01-13T16:47:35;9.70;72.90
63317;DHT22;49822;41.468;13.560;2023-01-13T16:50:04;9.70;73.20
63317;DHT22;49822;41.468;13.560;2023-01-13T16:52:33;9.70;72.20
63317;DHT22;49822;41.468;13.560;2023-01-13T16:55:07;9.70;73.40
63317;DHT22;49822;41.468;13.560;2023-01-13T16:57:38;9.70;73.50
63317;DHT22;49822;41.468;13.560;2023-01-13T17:00:06;9.60;73.20
63317;DHT22;49822;41.468;13.560;2023-01-13T17:02:33;9.60;74.00
63317;DHT22;49822;41.468;13.560;2023-01-13T17:05:01;9.40;73.30
63317;DHT22;49822;41.468;13.560;2023-01-13T17:07:30;9.40;73.50
63317;DHT22;49822;41.468;13.560;2023-01-13T17:10:18;9.30;73.70
63317;DHT22;49822;41.468;13.560;2023-01-13T17:12:46;9.40;73.20
63317;DHT22;49822;41.468;13.560;2023-01-13T17:15:16;9.40;73.70
63317;DHT22;49822;41.468;13.560;2023-01-13T17:17:45;9.50;73.90
63317;DHT22;49822;41.468;13.560;2023-01-13T17:20:16;9.50;73.90
63317;DHT22;49822;41.468;13.560;2023-01-13T17:22:44;9.40;74.50
63317;DHT22;49822;41.468;13.560;2023-01-13T17:25:20;9.20;75.00
63317;DHT22;49822;41.468;13.560;2023-01-13T17:27:48;9.20;75.00
63317;DHT22;49822;41.468;13.560;2023-01-13T17:30:16;8.60;76.50
63317;DHT22;49822;41.468;13.560;2023-01-13T17:32:45;8.50;78.00
63317;DHT22;49822;41.468;13.560;2023-01-13T17:35:13;8.60;78.30
63317;DHT22;49822;41.468;13.560;2023-01-13T17:37:45;8.80;78.00
63317;DHT22;49822;41.468;13.560;2023-01-13T17:40:13;8.90;76.50
63317;DHT22;49822;41.468;13.560;2023-01-13T17:42:41;9.00;76.60
63317;DHT22;49822;41.468;13.560;2023-01-13T17:45:08;9.00;75.80
63317;DHT22;49822;41.468;13.560;2023-01-13T17:47:38;9.00;76.20
63317;DHT22;49822;41.468;13.560;2023-01-13T17:50:07;8.90;75.70
63317;DHT22;49822;41.468;13.560;2023-01-13T17:52:35;8.70;76.80
63317;DHT22;49822;41.468;13.560;2023-01-13T17:55:09;8.60;77.00
63317;DHT22;49822;41.468;13.560;2023-01-13T17:57:36;8.60;77.10
63317;DHT22;49822;41.468;13.560;2023-01-13T18:00:05;8.60;77.90
63317;DHT22;49822;41.468;13.560;2023-01-13T18:02:37;8.70;77.40
63317;DHT22;49822;41.468;13.560;2023-01-13T18:05:05;8.90;77.20
63317;DHT22;49822;41.468;13.560;2023-01-13T18:07:33;9.00;76.30
63317;DHT22;49822;41.468;13.560;2023-01-13T18:10:00;9.00;75.70
63317;DHT22;49822;41.468;13.560;2023-01-13T18:12:29;9.00;76.40
63317;DHT22;49822;41.468;13.560;2023-01-13T18:14:56;9.00;76.50
63317;DHT22;49822;41.468;13.560;2023-01-13T18:17:25;9.00;76.40
63317;DHT22;49822;41.468;13.560;2023-01-13T18:19:53;9.00;76.40
63317;DHT22;49822;41.468;13.560;2023-01-13T18:22:39;8.80;75.70
63317;DHT22;49822;41.468;13.560;2023-01-13T18:25:25;8.60;77.20
63317;DHT22;49822;41.468;13.560;2023-01-13T18:28:12;8.70;77.10